sensor_id;sensor_type;location;lat;lon;timestamp;pressure;altitude;pressure_sealevel;temperature;humidity
71907;BME280;59781;52.090;5.030;2024-02-23T00:00:51;98646.91;;;5.76;100.00
71907;BME280;59781;52.090;5.030;2024-02-23T00:03:17;98649.78;;;5.75;100.00
71907;BME280;59781;52.090;5.030;2024-02-23T00:05:42;98654.94;;;5.76;100.00
71907;BME280;59781;52.090;5.030;2024-02-23T00:08:08;98655.19;;;5.82;100.00
71907;BME280;59781;52.090;5.030;2024-02-23T00:10:36;98660.97;;;5.85;100.00
71907;BME280;59781;52.090;5.030;2024-02-23T00:13:02;98666.63;;;5.75;100.00
71907;BME280;59781;52.090;5.030;2024-02-23T00:15:28;98674.66;;;5.75;100.00
71907;BME280;59781;52.090;5.030;2024-02-23T00:17:53;98663.53;;;5.72;100.00
71907;BME280;59781;52.090;5.030;2024-02-23T00:20:19;98653.97;;;5.84;100.00
71907;BME280;59781;52.090;5.030;2024-02-23T00:22:45;98677.19;;;5.84;100.00
71907;BME280;59781;52.090;5.030;2024-02-23T00:25:10;98669.69;;;5.94;100.00
71907;BME280;59781;52.090;5.030;2024-02-23T00:27:36;98676.56;;;5.82;100.00
71907;BME280;59781;52.090;5.030;2024-02-23T00:30:03;98686.66;;;5.86;100.00
71907;BME280;59781;52.090;5.030;2024-02-23T00:32:29;98690.34;;;5.85;100.00
71907;BME280;59781;52.090;5.030;2024-02-23T00:34:57;98695.03;;;6.04;100.00
71907;BME280;59781;52.090;5.030;2024-02-23T00:37:23;98698.25;;;5.93;100.00
71907;BME280;59781;52.090;5.030;2024-02-23T00:39:48;98698.16;;;5.87;100.00
71907;BME280;59781;52.090;5.030;2024-02-23T00:42:14;98701.97;;;5.99;100.00
71907;BME280;59781;52.090;5.030;2024-02-23T00:44:40;98704.84;;;5.97;100.00
71907;BME280;59781;52.090;5.030;2024-02-23T00:47:05;98711.47;;;6.01;100.00
71907;BME280;59781;52.090;5.030;2024-02-23T00:49:31;98716.47;;;6.11;100.00
71907;BME280;59781;52.090;5.030;2024-02-23T00:51:57;98720.66;;;6.20;100.00
71907;BME280;59781;52.090;5.030;2024-02-23T00:54:23;98730.31;;;5.93;100.00
71907;BME280;59781;52.090;5.030;2024-02-23T00:56:48;98728.00;;;5.69;100.00
71907;BME280;59781;52.090;5.030;2024-02-23T00:59:14;98728.00;;;5.47;100.00
71907;BME280;59781;52.090;5.030;2024-02-23T01:01:40;98733.97;;;5.28;100.00
71907;BME280;59781;52.090;5.030;2024-02-23T01:04:05;98739.59;;;5.18;100.00
71907;BME280;59781;52.090;5.030;2024-02-23T01:06:31;98751.69;;;5.14;100.00
71907;BME280;59781;52.090;5.030;2024-02-23T01:08:57;98763.66;;;5.04;100.00
71907;BME280;59781;52.090;5.030;2024-02-23T01:11:23;98766.91;;;4.55;100.00
71907;BME280;59781;52.090;5.030;2024-02-23T01:13:49;98800.63;;;4.33;100.00
71907;BME280;59781;52.090;5.030;2024-02-23T01:16:15;98794.72;;;4.23;100.00
71907;BME280;59781;52.090;5.030;2024-02-23T01:18:41;98805.25;;;4.16;100.00
71907;BME280;59781;52.090;5.030;2024-02-23T01:21:07;98812.75;;;4.13;100.00
71907;BME280;59781;52.090;5.030;2024-02-23T01:23:33;98822.53;;;4.20;100.00
71907;BME280;59781;52.090;5.030;2024-02-23T01:25:59;98816.75;;;4.31;100.00
71907;BME280;59781;52.090;5.030;2024-02-23T01:28:25;98820.31;;;4.61;100.00
71907;BME280;59781;52.090;5.030;2024-02-23T01:30:51;98822.88;;;4.70;100.00
71907;BME280;59781;52.090;5.030;2024-02-23T01:33:16;98823.28;;;4.96;100.00
71907;BME280;59781;52.090;5.030;2024-02-23T01:35:42;98814.34;;;5.04;100.00
71907;BME280;59781;52.090;5.030;2024-02-23T01:38:08;98819.13;;;4.94;100.00
71907;BME280;59781;52.090;5.030;2024-02-23T01:40:34;98824.91;;;4.97;100.00
71907;BME280;59781;52.090;5.030;2024-02-23T01:45:30;98811.00;;;5.16;100.00
71907;BME280;59781;52.090;5.030;2024-02-23T01:47:57;98812.75;;;5.24;100.00
71907;BME280;59781;52.090;5.030;2024-02-23T01:50:25;98808.25;;;5.25;100.00
71907;BME280;59781;52.090;5.030;2024-02-23T01:52:53;98812.56;;;5.26;100.00
71907;BME280;59781;52.090;5.030;2024-02-23T01:55:22;98805.75;;;5.23;100.00
71907;BME280;59781;52.090;5.030;2024-02-23T01:57:48;98797.94;;;5.22;100.00
71907;BME280;59781;52.090;5.030;2024-02-23T02:00:17;98803.44;;;5.35;100.00
71907;BME280;59781;52.090;5.030;2024-02-23T02:02:50;98806.94;;;5.35;100.00
71907;BME280;59781;52.090;5.030;2024-02-23T02:05:16;98804.69;;;5.39;100.00
71907;BME280;59781;52.090;5.030;2024-02-23T02:07:42;98794.50;;;5.42;100.00
71907;BME280;59781;52.090;5.030;2024-02-23T02:10:09;98800.63;;;5.22;100.00
71907;BME280;59781;52.090;5.030;2024-02-23T02:12:35;98820.13;;;5.22;100.00
71907;BME280;59781;52.090;5.030;2024-02-23T02:15:01;98816.25;;;5.10;100.00
71907;BME280;59781;52.090;5.030;2024-02-23T02:17:28;98809.16;;;5.17;100.00
71907;BME280;59781;52.090;5.030;2024-02-23T02:19:54;98815.53;;;5.01;100.00
71907;BME280;59781;52.090;5.030;2024-02-23T02:22:20;98831.63;;;5.08;100.00
71907;BME280;59781;52.090;5.030;2024-02-23T02:24:45;98834.09;;;5.09;100.00
71907;BME280;59781;52.090;5.030;2024-02-23T02:27:14;98836.22;;;4.99;100.00
71907;BME280;59781;52.090;5.030;2024-02-23T02:29:40;98828.97;;;5.08;100.00
71907;BME280;59781;52.090;5.030;2024-02-23T02:32:06;98845.69;;;5.16;100.00
71907;BME280;59781;52.090;5.030;2024-02-23T02:34:32;98842.19;;;5.01;100.00
71907;BME280;59781;52.090;5.030;2024-02-23T02:36:58;98838.53;;;5.02;100.00
71907;BME280;59781;52.090;5.030;2024-02-23T02:39:25;98841.03;;;5.04;100.00
71907;BME280;59781;52.090;5.030;2024-02-23T02:41:52;98842.13;;;4.95;100.00
71907;BME280;59781;52.090;5.030;2024-02-23T02:44:18;98834.66;;;5.05;100.00
71907;BME280;59781;52.090;5.030;2024-02-23T02:46:43;98837.72;;;4.87;100.00
71907;BME280;59781;52.090;5.030;2024-02-23T02:49:09;98845.31;;;4.90;100.00
71907;BME280;59781;52.090;5.030;2024-02-23T02:51:35;98842.94;;;4.80;100.00
71907;BME280;59781;52.090;5.030;2024-02-23T02:54:01;98844.50;;;4.89;100.00
71907;BME280;59781;52.090;5.030;2024-02-23T02:56:26;98846.34;;;4.89;100.00
71907;BME280;59781;52.090;5.030;2024-02-23T02:58:52;98844.25;;;4.84;100.00
71907;BME280;59781;52.090;5.030;2024-02-23T03:01:18;98858.38;;;4.70;100.00
71907;BME280;59781;52.090;5.030;2024-02-23T03:03:43;98852.59;;;4.67;100.00
71907;BME280;59781;52.090;5.030;2024-02-23T03:06:09;98857.34;;;4.71;100.00
71907;BME280;59781;52.090;5.030;2024-02-23T03:08:35;98859.41;;;4.84;100.00
71907;BME280;59781;52.090;5.030;2024-02-23T03:11:00;98862.28;;;4.82;100.00
71907;BME280;59781;52.090;5.030;2024-02-23T03:13:26;98863.94;;;4.83;100.00
71907;BME280;59781;52.090;5.030;2024-02-23T03:15:52;98865.28;;;4.79;100.00
71907;BME280;59781;52.090;5.030;2024-02-23T03:18:17;98868.97;;;4.64;100.00
71907;BME280;59781;52.090;5.030;2024-02-23T03:20:44;98858.81;;;4.59;100.00
71907;BME280;59781;52.090;5.030;2024-02-23T03:23:11;98880.06;;;4.52;100.00
71907;BME280;59781;52.090;5.030;2024-02-23T03:25:37;98885.03;;;4.55;100.00
71907;BME280;59781;52.090;5.030;2024-02-23T03:28:02;98879.25;;;4.67;100.00
71907;BME280;59781;52.090;5.030;2024-02-23T03:30:28;98886.13;;;4.61;100.00
71907;BME280;59781;52.090;5.030;2024-02-23T03:32:54;98883.00;;;4.57;100.00
71907;BME280;59781;52.090;5.030;2024-02-23T03:35:19;98886.03;;;4.54;100.00
71907;BME280;59781;52.090;5.030;2024-02-23T03:37:45;98884.72;;;4.50;100.00
71907;BME280;59781;52.090;5.030;2024-02-23T03:40:11;98881.16;;;4.58;100.00
71907;BME280;59781;52.090;5.030;2024-02-23T03:42:38;98886.56;;;4.50;100.00
71907;BME280;59781;52.090;5.030;2024-02-23T03:45:04;98892.63;;;4.44;100.00
71907;BME280;59781;52.090;5.030;2024-02-23T03:47:30;98897.91;;;4.29;100.00
71907;BME280;59781;52.090;5.030;2024-02-23T03:49:56;98903.53;;;4.34;100.00
71907;BME280;59781;52.090;5.030;2024-02-23T03:52:22;98897.19;;;4.35;100.00
71907;BME280;59781;52.090;5.030;2024-02-23T03:54:47;98904.41;;;4.26;100.00
71907;BME280;59781;52.090;5.030;2024-02-23T03:57:14;98896.25;;;4.28;100.00
71907;BME280;59781;52.090;5.030;2024-02-23T03:59:51;98895.22;;;4.29;100.00
71907;BME280;59781;52.090;5.030;2024-02-23T04:02:18;98902.47;;;4.20;100.00
71907;BME280;59781;52.090;5.030;2024-02-23T04:04:44;98897.78;;;4.22;100.00
71907;BME280;59781;52.090;5.030;2024-02-23T04:07:10;98900.38;;;4.30;100.00
71907;BME280;59781;52.090;5.030;2024-02-23T04:09:36;98907.44;;;4.23;100.00
71907;BME280;59781;52.090;5.030;2024-02-23T04:12:01;98913.47;;;4.40;100.00
71907;BME280;59781;52.090;5.030;2024-02-23T04:14:27;98901.81;;;4.18;100.00
71907;BME280;59781;52.090;5.030;2024-02-23T04:16:53;98905.94;;;4.21;100.00
71907;BME280;59781;52.090;5.030;2024-02-23T04:19:19;98903.78;;;4.24;100.00
71907;BME280;59781;52.090;5.030;2024-02-23T04:21:45;98907.97;;;4.19;100.00
71907;BME280;59781;52.090;5.030;2024-02-23T04:24:10;98912.34;;;4.12;100.00
71907;BME280;59781;52.090;5.030;2024-02-23T04:26:36;98909.84;;;4.10;100.00
71907;BME280;59781;52.090;5.030;2024-02-23T04:29:02;98912.88;;;4.07;100.00
71907;BME280;59781;52.090;5.030;2024-02-23T04:31:27;98919.16;;;4.14;100.00
71907;BME280;59781;52.090;5.030;2024-02-23T04:33:53;98920.59;;;4.25;100.00
71907;BME280;59781;52.090;5.030;2024-02-23T04:36:20;98920.66;;;4.17;100.00
71907;BME280;59781;52.090;5.030;2024-02-23T04:38:48;98919.28;;;4.21;100.00
71907;BME280;59781;52.090;5.030;2024-02-23T04:41:14;98921.09;;;4.20;100.00
71907;BME280;59781;52.090;5.030;2024-02-23T04:43:39;98921.34;;;4.34;100.00
71907;BME280;59781;52.090;5.030;2024-02-23T04:46:05;98923.84;;;4.35;100.00
71907;BME280;59781;52.090;5.030;2024-02-23T04:48:31;98917.50;;;4.36;100.00
71907;BME280;59781;52.090;5.030;2024-02-23T04:50:57;98923.78;;;4.43;100.00
71907;BME280;59781;52.090;5.030;2024-02-23T04:53:23;98918.91;;;4.47;100.00
71907;BME280;59781;52.090;5.030;2024-02-23T04:55:49;98926.47;;;4.58;100.00
71907;BME280;59781;52.090;5.030;2024-02-23T04:58:14;98912.69;;;4.54;100.00
71907;BME280;59781;52.090;5.030;2024-02-23T05:00:40;98918.03;;;4.54;100.00
71907;BME280;59781;52.090;5.030;2024-02-23T05:03:07;98916.28;;;4.61;100.00
71907;BME280;59781;52.090;5.030;2024-02-23T05:05:33;98906.44;;;4.62;100.00
71907;BME280;59781;52.090;5.030;2024-02-23T05:07:59;98903.38;;;4.50;100.00
71907;BME280;59781;52.090;5.030;2024-02-23T05:10:24;98896.91;;;4.68;100.00
71907;BME280;59781;52.090;5.030;2024-02-23T05:12:50;98901.66;;;4.57;100.00
71907;BME280;59781;52.090;5.030;2024-02-23T05:15:16;98897.66;;;4.76;100.00
71907;BME280;59781;52.090;5.030;2024-02-23T05:17:42;98902.09;;;4.84;100.00
71907;BME280;59781;52.090;5.030;2024-02-23T05:20:08;98901.59;;;4.80;100.00
71907;BME280;59781;52.090;5.030;2024-02-23T05:22:39;98897.72;;;4.68;100.00
71907;BME280;59781;52.090;5.030;2024-02-23T05:25:06;98906.56;;;4.69;100.00
71907;BME280;59781;52.090;5.030;2024-02-23T05:27:35;98904.94;;;4.82;100.00
71907;BME280;59781;52.090;5.030;2024-02-23T05:30:01;98900.31;;;4.76;100.00
71907;BME280;59781;52.090;5.030;2024-02-23T05:32:26;98899.88;;;4.87;100.00
71907;BME280;59781;52.090;5.030;2024-02-23T05:34:52;98897.00;;;4.74;100.00
71907;BME280;59781;52.090;5.030;2024-02-23T05:37:19;98895.94;;;4.83;100.00
71907;BME280;59781;52.090;5.030;2024-02-23T05:39:45;98889.66;;;4.76;100.00
71907;BME280;59781;52.090;5.030;2024-02-23T05:42:13;98899.16;;;4.94;100.00
71907;BME280;59781;52.090;5.030;2024-02-23T05:44:39;98897.97;;;4.96;100.00
71907;BME280;59781;52.090;5.030;2024-02-23T05:47:08;98889.41;;;4.86;100.00
71907;BME280;59781;52.090;5.030;2024-02-23T05:49:35;98891.69;;;4.89;100.00
71907;BME280;59781;52.090;5.030;2024-02-23T05:52:01;98888.00;;;4.90;100.00
71907;BME280;59781;52.090;5.030;2024-02-23T05:54:27;98899.97;;;4.94;100.00
71907;BME280;59781;52.090;5.030;2024-02-23T05:56:52;98903.19;;;4.89;100.00
71907;BME280;59781;52.090;5.030;2024-02-23T05:59:18;98905.50;;;4.93;100.00
71907;BME280;59781;52.090;5.030;2024-02-23T06:01:43;98907.22;;;4.85;100.00
71907;BME280;59781;52.090;5.030;2024-02-23T06:04:09;98912.00;;;4.90;100.00
71907;BME280;59781;52.090;5.030;2024-02-23T06:06:35;98910.38;;;5.04;100.00
71907;BME280;59781;52.090;5.030;2024-02-23T06:09:00;98910.00;;;4.92;100.00
71907;BME280;59781;52.090;5.030;2024-02-23T06:11:28;98913.78;;;4.98;100.00
71907;BME280;59781;52.090;5.030;2024-02-23T06:13:54;98907.88;;;4.87;100.00
71907;BME280;59781;52.090;5.030;2024-02-23T06:16:19;98919.00;;;4.91;100.00
71907;BME280;59781;52.090;5.030;2024-02-23T06:18:45;98918.66;;;4.94;100.00
71907;BME280;59781;52.090;5.030;2024-02-23T06:21:14;98919.94;;;4.98;100.00
71907;BME280;59781;52.090;5.030;2024-02-23T06:23:42;98905.66;;;4.91;100.00
71907;BME280;59781;52.090;5.030;2024-02-23T06:26:07;98917.00;;;4.93;100.00
71907;BME280;59781;52.090;5.030;2024-02-23T06:28:33;98904.94;;;4.82;100.00
71907;BME280;59781;52.090;5.030;2024-02-23T06:30:59;98912.84;;;4.76;100.00
71907;BME280;59781;52.090;5.030;2024-02-23T06:33:24;98913.09;;;4.81;100.00
71907;BME280;59781;52.090;5.030;2024-02-23T06:35:50;98920.56;;;4.85;100.00
71907;BME280;59781;52.090;5.030;2024-02-23T06:38:18;98920.38;;;4.87;100.00
71907;BME280;59781;52.090;5.030;2024-02-23T06:40:43;98926.00;;;4.92;100.00
71907;BME280;59781;52.090;5.030;2024-02-23T06:43:09;98925.25;;;4.83;100.00
71907;BME280;59781;52.090;5.030;2024-02-23T06:45:35;98912.13;;;4.97;100.00
71907;BME280;59781;52.090;5.030;2024-02-23T06:48:01;98908.34;;;5.06;100.00
71907;BME280;59781;52.090;5.030;2024-02-23T06:50:26;98927.75;;;5.00;100.00
71907;BME280;59781;52.090;5.030;2024-02-23T06:52:52;98916.63;;;4.96;100.00
71907;BME280;59781;52.090;5.030;2024-02-23T06:55:17;98919.28;;;4.96;100.00
71907;BME280;59781;52.090;5.030;2024-02-23T06:57:43;98919.56;;;5.01;100.00
71907;BME280;59781;52.090;5.030;2024-02-23T07:00:09;98913.78;;;4.98;100.00
71907;BME280;59781;52.090;5.030;2024-02-23T07:02:36;98921.44;;;5.15;100.00
71907;BME280;59781;52.090;5.030;2024-02-23T07:05:03;98906.44;;;5.14;100.00
71907;BME280;59781;52.090;5.030;2024-02-23T07:07:32;98918.31;;;5.12;100.00
71907;BME280;59781;52.090;5.030;2024-02-23T07:10:00;98920.22;;;5.18;100.00
71907;BME280;59781;52.090;5.030;2024-02-23T07:12:26;98913.69;;;5.06;100.00
71907;BME280;59781;52.090;5.030;2024-02-23T07:14:56;98912.41;;;5.16;100.00
71907;BME280;59781;52.090;5.030;2024-02-23T07:17:23;98908.63;;;5.26;100.00
71907;BME280;59781;52.090;5.030;2024-02-23T07:19:48;98904.69;;;5.22;100.00
71907;BME280;59781;52.090;5.030;2024-02-23T07:22:16;98897.50;;;5.37;100.00
71907;BME280;59781;52.090;5.030;2024-02-23T07:24:44;98908.00;;;5.24;100.00
71907;BME280;59781;52.090;5.030;2024-02-23T07:27:10;98888.94;;;5.27;100.00
71907;BME280;59781;52.090;5.030;2024-02-23T07:29:35;98896.75;;;5.43;100.00
71907;BME280;59781;52.090;5.030;2024-02-23T07:32:02;98894.44;;;5.40;100.00
71907;BME280;59781;52.090;5.030;2024-02-23T07:34:28;98889.09;;;5.40;100.00
71907;BME280;59781;52.090;5.030;2024-02-23T07:36:54;98898.78;;;5.41;100.00
71907;BME280;59781;52.090;5.030;2024-02-23T07:39:20;98893.25;;;5.42;100.00
71907;BME280;59781;52.090;5.030;2024-02-23T07:41:47;98899.06;;;5.46;100.00
71907;BME280;59781;52.090;5.030;2024-02-23T07:44:13;98903.41;;;5.32;100.00
71907;BME280;59781;52.090;5.030;2024-02-23T07:46:39;98893.75;;;5.31;100.00
71907;BME280;59781;52.090;5.030;2024-02-23T07:49:05;98892.34;;;5.21;100.00
71907;BME280;59781;52.090;5.030;2024-02-23T07:51:35;98896.22;;;5.18;100.00
71907;BME280;59781;52.090;5.030;2024-02-23T07:54:01;98895.56;;;5.16;100.00
71907;BME280;59781;52.090;5.030;2024-02-23T07:56:27;98887.84;;;5.06;100.00
71907;BME280;59781;52.090;5.030;2024-02-23T07:58:53;98878.53;;;5.17;100.00
71907;BME280;59781;52.090;5.030;2024-02-23T08:01:19;98877.88;;;5.30;100.00
71907;BME280;59781;52.090;5.030;2024-02-23T08:03:45;98867.34;;;5.22;100.00
71907;BME280;59781;52.090;5.030;2024-02-23T08:06:10;98881.78;;;5.12;100.00
71907;BME280;59781;52.090;5.030;2024-02-23T08:08:38;98886.09;;;5.13;100.00
71907;BME280;59781;52.090;5.030;2024-02-23T08:11:04;98891.44;;;5.13;100.00
71907;BME280;59781;52.090;5.030;2024-02-23T08:13:30;98887.19;;;5.04;100.00
71907;BME280;59781;52.090;5.030;2024-02-23T08:15:58;98873.88;;;5.04;100.00
71907;BME280;59781;52.090;5.030;2024-02-23T08:18:24;98869.97;;;4.77;100.00
71907;BME280;59781;52.090;5.030;2024-02-23T08:20:50;98875.69;;;4.89;100.00
71907;BME280;59781;52.090;5.030;2024-02-23T08:23:17;98866.84;;;4.88;100.00
71907;BME280;59781;52.090;5.030;2024-02-23T08:25:44;98867.69;;;5.04;100.00
71907;BME280;59781;52.090;5.030;2024-02-23T08:28:10;98866.22;;;5.01;100.00
71907;BME280;59781;52.090;5.030;2024-02-23T08:30:35;98869.16;;;5.06;100.00
71907;BME280;59781;52.090;5.030;2024-02-23T08:33:01;98874.50;;;5.06;100.00
71907;BME280;59781;52.090;5.030;2024-02-23T08:35:27;98876.97;;;5.08;100.00
71907;BME280;59781;52.090;5.030;2024-02-23T08:37:52;98870.44;;;5.10;100.00
71907;BME280;59781;52.090;5.030;2024-02-23T08:40:18;98875.72;;;5.04;100.00
71907;BME280;59781;52.090;5.030;2024-02-23T08:42:44;98879.38;;;5.03;100.00
71907;BME280;59781;52.090;5.030;2024-02-23T08:45:09;98883.78;;;5.10;100.00
71907;BME280;59781;52.090;5.030;2024-02-23T08:47:38;98878.38;;;5.04;100.00
71907;BME280;59781;52.090;5.030;2024-02-23T08:50:04;98890.06;;;5.03;100.00
71907;BME280;59781;52.090;5.030;2024-02-23T08:52:30;98887.13;;;5.12;100.00
71907;BME280;59781;52.090;5.030;2024-02-23T08:54:56;98881.31;;;5.09;100.00
71907;BME280;59781;52.090;5.030;2024-02-23T08:57:21;98882.59;;;5.13;100.00
71907;BME280;59781;52.090;5.030;2024-02-23T08:59:51;98878.63;;;5.09;100.00
71907;BME280;59781;52.090;5.030;2024-02-23T09:02:17;98884.06;;;5.15;100.00
71907;BME280;59781;52.090;5.030;2024-02-23T09:04:43;98882.34;;;5.23;100.00
71907;BME280;59781;52.090;5.030;2024-02-23T09:07:11;98883.97;;;5.09;100.00
71907;BME280;59781;52.090;5.030;2024-02-23T09:09:37;98881.78;;;5.12;100.00
71907;BME280;59781;52.090;5.030;2024-02-23T09:12:03;98890.69;;;5.05;100.00
71907;BME280;59781;52.090;5.030;2024-02-23T09:14:29;98885.09;;;5.14;100.00
71907;BME280;59781;52.090;5.030;2024-02-23T09:16:55;98890.97;;;5.10;100.00
71907;BME280;59781;52.090;5.030;2024-02-23T09:19:20;98911.97;;;5.13;100.00
71907;BME280;59781;52.090;5.030;2024-02-23T09:21:46;98893.84;;;5.23;100.00
71907;BME280;59781;52.090;5.030;2024-02-23T09:24:12;98890.22;;;5.16;100.00
71907;BME280;59781;52.090;5.030;2024-02-23T09:26:38;98910.19;;;5.20;100.00
71907;BME280;59781;52.090;5.030;2024-02-23T09:29:04;98905.84;;;5.48;100.00
71907;BME280;59781;52.090;5.030;2024-02-23T09:31:30;98902.53;;;5.46;100.00
71907;BME280;59781;52.090;5.030;2024-02-23T09:33:57;98884.00;;;5.60;100.00
71907;BME280;59781;52.090;5.030;2024-02-23T09:36:23;98888.56;;;5.44;100.00
71907;BME280;59781;52.090;5.030;2024-02-23T09:38:50;98897.50;;;5.52;100.00
71907;BME280;59781;52.090;5.030;2024-02-23T09:41:23;98894.63;;;5.89;100.00
71907;BME280;59781;52.090;5.030;2024-02-23T09:43:50;98873.44;;;6.24;100.00
71907;BME280;59781;52.090;5.030;2024-02-23T09:46:17;98874.69;;;6.28;100.00
71907;BME280;59781;52.090;5.030;2024-02-23T09:48:47;98863.81;;;6.51;100.00
71907;BME280;59781;52.090;5.030;2024-02-23T09:51:15;98877.31;;;6.43;100.00
71907;BME280;59781;52.090;5.030;2024-02-23T09:53:42;98879.84;;;6.51;100.00
71907;BME280;59781;52.090;5.030;2024-02-23T09:56:11;98876.19;;;6.58;100.00
71907;BME280;59781;52.090;5.030;2024-02-23T09:58:37;98886.28;;;6.35;100.00
71907;BME280;59781;52.090;5.030;2024-02-23T10:01:04;98893.56;;;6.20;100.00
71907;BME280;59781;52.090;5.030;2024-02-23T10:03:30;98891.56;;;6.28;100.00
71907;BME280;59781;52.090;5.030;2024-02-23T10:05:59;98889.34;;;6.11;100.00
71907;BME280;59781;52.090;5.030;2024-02-23T10:08:28;98899.34;;;6.02;100.00
71907;BME280;59781;52.090;5.030;2024-02-23T10:10:55;98907.16;;;6.03;100.00
71907;BME280;59781;52.090;5.030;2024-02-23T10:13:22;98911.75;;;6.10;100.00
71907;BME280;59781;52.090;5.030;2024-02-23T10:15:52;98900.47;;;6.14;100.00
71907;BME280;59781;52.090;5.030;2024-02-23T10:18:19;98913.56;;;6.09;100.00
71907;BME280;59781;52.090;5.030;2024-02-23T10:20:47;98900.47;;;6.14;100.00
71907;BME280;59781;52.090;5.030;2024-02-23T10:23:13;98896.47;;;6.03;100.00
71907;BME280;59781;52.090;5.030;2024-02-23T10:25:39;98897.72;;;6.29;100.00
71907;BME280;59781;52.090;5.030;2024-02-23T10:28:08;98911.44;;;6.41;100.00
71907;BME280;59781;52.090;5.030;2024-02-23T10:30:36;98915.69;;;6.35;100.00
71907;BME280;59781;52.090;5.030;2024-02-23T10:33:05;98915.69;;;6.35;100.00
71907;BME280;59781;52.090;5.030;2024-02-23T10:35:32;98926.97;;;6.52;100.00
71907;BME280;59781;52.090;5.030;2024-02-23T10:38:01;98932.38;;;6.37;100.00
71907;BME280;59781;52.090;5.030;2024-02-23T10:40:30;98923.13;;;6.61;100.00
71907;BME280;59781;52.090;5.030;2024-02-23T10:43:02;98931.53;;;6.58;100.00
71907;BME280;59781;52.090;5.030;2024-02-23T10:45:31;98936.25;;;6.56;100.00
71907;BME280;59781;52.090;5.030;2024-02-23T10:47:59;98928.72;;;6.66;100.00
71907;BME280;59781;52.090;5.030;2024-02-23T10:50:25;98944.34;;;6.63;100.00
71907;BME280;59781;52.090;5.030;2024-02-23T10:52:52;98937.84;;;6.50;100.00
71907;BME280;59781;52.090;5.030;2024-02-23T10:55:21;98947.13;;;6.76;100.00
71907;BME280;59781;52.090;5.030;2024-02-23T10:57:48;98956.09;;;7.52;100.00
71907;BME280;59781;52.090;5.030;2024-02-23T11:00:21;98932.97;;;7.44;100.00
71907;BME280;59781;52.090;5.030;2024-02-23T11:02:52;98938.31;;;7.86;100.00
71907;BME280;59781;52.090;5.030;2024-02-23T11:05:20;98928.53;;;8.13;100.00
71907;BME280;59781;52.090;5.030;2024-02-23T11:07:46;98926.66;;;8.13;100.00
71907;BME280;59781;52.090;5.030;2024-02-23T11:10:15;98937.06;;;7.82;100.00
71907;BME280;59781;52.090;5.030;2024-02-23T11:12:41;98946.44;;;7.99;100.00
71907;BME280;59781;52.090;5.030;2024-02-23T11:15:07;98945.28;;;7.73;100.00
71907;BME280;59781;52.090;5.030;2024-02-23T11:17:35;98947.09;;;7.60;100.00
71907;BME280;59781;52.090;5.030;2024-02-23T11:20:05;98948.56;;;7.28;100.00
71907;BME280;59781;52.090;5.030;2024-02-23T11:22:34;98950.38;;;7.27;100.00
71907;BME280;59781;52.090;5.030;2024-02-23T11:25:07;98969.56;;;7.31;100.00
71907;BME280;59781;52.090;5.030;2024-02-23T11:27:37;98953.72;;;7.29;100.00
71907;BME280;59781;52.090;5.030;2024-02-23T11:30:09;98955.94;;;7.26;100.00
71907;BME280;59781;52.090;5.030;2024-02-23T11:32:39;98947.63;;;7.14;100.00
71907;BME280;59781;52.090;5.030;2024-02-23T11:35:07;98958.81;;;7.24;100.00
71907;BME280;59781;52.090;5.030;2024-02-23T11:37:49;98951.72;;;7.38;100.00
71907;BME280;59781;52.090;5.030;2024-02-23T11:40:25;98953.19;;;7.95;100.00
71907;BME280;59781;52.090;5.030;2024-02-23T11:42:51;98959.59;;;7.94;100.00
71907;BME280;59781;52.090;5.030;2024-02-23T11:45:17;98966.19;;;7.91;100.00
71907;BME280;59781;52.090;5.030;2024-02-23T11:47:43;98952.91;;;7.76;100.00
71907;BME280;59781;52.090;5.030;2024-02-23T11:50:10;98961.66;;;7.51;100.00
71907;BME280;59781;52.090;5.030;2024-02-23T11:52:38;98983.28;;;7.49;100.00
71907;BME280;59781;52.090;5.030;2024-02-23T11:55:04;98966.66;;;7.60;100.00
71907;BME280;59781;52.090;5.030;2024-02-23T11:57:32;98982.25;;;7.50;100.00
71907;BME280;59781;52.090;5.030;2024-02-23T12:00:00;98980.84;;;7.54;100.00
71907;BME280;59781;52.090;5.030;2024-02-23T12:02:27;98983.09;;;7.51;100.00
71907;BME280;59781;52.090;5.030;2024-02-23T12:04:52;98985.84;;;7.64;100.00
71907;BME280;59781;52.090;5.030;2024-02-23T12:07:18;98973.47;;;7.63;100.00
71907;BME280;59781;52.090;5.030;2024-02-23T12:09:45;98973.72;;;7.68;100.00
71907;BME280;59781;52.090;5.030;2024-02-23T12:12:11;98971.41;;;7.58;100.00
71907;BME280;59781;52.090;5.030;2024-02-23T12:14:37;98980.69;;;7.62;100.00
71907;BME280;59781;52.090;5.030;2024-02-23T12:17:04;98984.66;;;7.73;100.00
71907;BME280;59781;52.090;5.030;2024-02-23T12:19:31;98985.94;;;7.84;100.00
71907;BME280;59781;52.090;5.030;2024-02-23T12:22:01;98975.00;;;7.85;100.00
71907;BME280;59781;52.090;5.030;2024-02-23T12:24:27;98969.97;;;7.62;100.00
71907;BME280;59781;52.090;5.030;2024-02-23T12:26:55;98983.16;;;7.64;100.00
71907;BME280;59781;52.090;5.030;2024-02-23T12:29:21;98989.59;;;7.76;100.00
71907;BME280;59781;52.090;5.030;2024-02-23T12:31:47;98984.41;;;8.09;100.00
71907;BME280;59781;52.090;5.030;2024-02-23T12:34:13;98993.31;;;8.16;100.00
71907;BME280;59781;52.090;5.030;2024-02-23T12:36:39;98985.41;;;8.01;100.00
71907;BME280;59781;52.090;5.030;2024-02-23T12:39:05;98994.31;;;8.09;100.00
71907;BME280;59781;52.090;5.030;2024-02-23T12:41:31;98990.59;;;8.10;100.00
71907;BME280;59781;52.090;5.030;2024-02-23T12:43:58;98988.03;;;7.95;100.00
71907;BME280;59781;52.090;5.030;2024-02-23T12:46:24;98991.56;;;7.95;100.00
71907;BME280;59781;52.090;5.030;2024-02-23T12:48:50;99003.38;;;8.14;100.00
71907;BME280;59781;52.090;5.030;2024-02-23T12:51:16;99008.41;;;8.30;100.00
71907;BME280;59781;52.090;5.030;2024-02-23T12:53:42;99000.94;;;8.19;100.00
71907;BME280;59781;52.090;5.030;2024-02-23T12:56:11;99001.38;;;8.29;100.00
71907;BME280;59781;52.090;5.030;2024-02-23T12:58:40;99008.47;;;8.37;100.00